Time;durP1;ratioP1;P1;durP2;ratioP2;P2;SDS_P1;SDS_P2;PMS_P1;PMS_P2;Temp;Humidity;BMP_temperature;BMP_pressure;BME280_temperature;BME280_humidity;BME280_pressure;Samples;Min_cycle;Max_cycle;Signal;HPM_P1;HPM_P2
2022/06/07 00:01:16;;;;;;;1.80;1.17;;;;;;;17.97;64.54;98094.44;5134138;28;20203;-69
2022/06/07 00:03:43;;;;;;;2.03;1.40;;;;;;;17.97;64.69;98102.50;5134357;28;20202;-69
2022/06/07 00:06:09;;;;;;;2.00;1.00;;;;;;;17.96;63.72;98092.84;5134066;28;20669;-69
2022/06/07 00:08:36;;;;;;;2.70;1.30;;;;;;;17.94;64.18;98099.56;5134311;28;20317;-69
2022/06/07 00:11:02;;;;;;;2.00;1.07;;;;;;;17.92;63.90;98105.19;5136848;27;20289;-69
2022/06/07 00:13:29;;;;;;;1.20;1.10;;;;;;;17.91;63.04;98100.91;5138145;27;20661;-69
2022/06/07 00:15:55;;;;;;;1.03;1.03;;;;;;;17.91;63.42;98097.41;5138399;27;20285;-69
2022/06/07 00:18:22;;;;;;;1.43;1.10;;;;;;;17.93;62.91;98092.56;5138324;27;20226;-69
2022/06/07 00:20:48;;;;;;;2.30;1.10;;;;;;;17.91;62.64;98095.50;5138353;27;20290;-69
2022/06/07 00:23:18;;;;;;;1.10;1.00;;;;;;;17.96;62.56;98095.53;5138261;27;20206;-69
2022/06/07 00:25:48;;;;;;;1.40;1.30;;;;;;;17.93;64.11;98108.69;5138116;27;20696;-69
2022/06/07 00:28:14;;;;;;;1.83;1.73;;;;;;;17.90;63.08;98104.66;5138157;27;20233;-69
2022/06/07 00:30:41;;;;;;;2.23;1.30;;;;;;;17.90;62.68;98104.66;5138168;27;20202;-69
2022/06/07 00:33:08;;;;;;;1.23;0.80;;;;;;;17.85;63.06;98118.09;5138120;27;20209;-70
2022/06/07 00:35:35;;;;;;;2.33;1.03;;;;;;;17.79;64.72;98108.41;5119903;27;20199;-69
2022/06/07 00:38:02;;;;;;;3.97;2.03;;;;;;;17.87;63.03;98099.81;5137940;27;20254;-69
2022/06/07 00:40:28;;;;;;;2.27;1.13;;;;;;;17.86;63.41;98103.56;5137663;27;20238;-69
2022/06/07 00:42:55;;;;;;;1.20;1.10;;;;;;;17.80;63.53;98112.69;5137924;27;20206;-68
2022/06/07 00:45:23;;;;;;;1.37;0.90;;;;;;;17.77;62.65;98110.53;5137778;27;20305;-69
2022/06/07 00:47:50;;;;;;;2.43;1.30;;;;;;;17.77;63.41;98115.09;5137778;27;20261;-69
2022/06/07 00:50:26;;;;;;;1.20;1.10;;;;;;;17.75;63.35;98106.47;5137474;27;20202;-69
2022/06/07 00:52:53;;;;;;;2.73;1.40;;;;;;;17.75;63.48;98111.88;5137310;27;20273;-68
2022/06/07 00:55:19;;;;;;;2.10;1.17;;;;;;;17.66;65.17;98108.88;5137682;27;20189;-69
2022/06/07 00:57:46;;;;;;;1.83;1.30;;;;;;;17.65;62.83;98109.94;5137557;27;20306;-69
2022/06/07 01:00:16;;;;;;;4.27;2.40;;;;;;;17.67;63.32;98105.13;5137606;27;20234;-69
2022/06/07 01:02:42;;;;;;;2.20;1.20;;;;;;;17.62;63.69;98102.41;5119662;27;20293;-69
2022/06/07 01:05:09;;;;;;;1.23;0.93;;;;;;;17.58;64.51;98104.00;5137421;27;20219;-69
2022/06/07 01:13:03;;;;;;;3.13;1.20;;;;;;;17.36;65.13;98107.88;5137206;27;20170;-69
2022/06/07 01:15:30;;;;;;;1.27;1.10;;;;;;;17.33;66.01;98103.81;5137296;27;20306;-69
2022/06/07 01:17:56;;;;;;;1.73;1.10;;;;;;;17.35;66.28;98096.31;5136865;27;20796;-69
2022/06/07 01:20:23;;;;;;;2.53;1.30;;;;;;;17.29;66.39;98101.94;5137251;27;20293;-69
2022/06/07 01:22:49;;;;;;;1.40;1.10;;;;;;;17.25;65.87;98104.34;5136768;27;20205;-69
2022/06/07 01:25:15;;;;;;;1.67;1.00;;;;;;;17.20;65.64;98106.97;5136715;27;20645;-69
2022/06/07 01:27:42;;;;;;;2.23;1.20;;;;;;;17.20;67.49;98104.28;5136642;27;20318;-69
2022/06/07 01:30:09;;;;;;;2.40;1.00;;;;;;;17.13;67.14;98103.72;5136729;27;20557;-69
2022/06/07 01:32:35;;;;;;;1.33;0.90;;;;;;;17.14;67.87;98101.84;5136902;27;20698;-68
2022/06/07 01:35:02;;;;;;;1.43;1.10;;;;;;;16.98;69.33;98110.88;5136875;27;20205;-69
2022/06/07 01:37:28;;;;;;;1.63;1.10;;;;;;;16.89;69.17;98105.19;5136824;27;20202;-69
2022/06/07 01:42:38;;;;;;;0.97;0.90;;;;;;;16.74;70.43;98099.66;5136654;27;20228;-69
2022/06/07 01:45:05;;;;;;;1.70;0.90;;;;;;;16.72;71.80;98096.44;5136310;27;20230;-69
2022/06/07 01:47:33;;;;;;;1.07;0.97;;;;;;;16.71;72.20;98099.38;5136621;27;20198;-69
2022/06/07 01:50:00;;;;;;;2.10;1.07;;;;;;;16.66;75.26;98102.84;5136335;27;20274;-69
2022/06/07 01:52:30;;;;;;;2.07;1.10;;;;;;;16.56;76.82;98100.06;5136647;27;20203;-69
2022/06/07 01:54:57;;;;;;;2.70;1.30;;;;;;;16.47;80.35;98095.44;5136432;27;20245;-69
2022/06/07 01:57:24;;;;;;;2.43;1.10;;;;;;;16.33;81.30;98092.31;5136397;27;20293;-69
2022/06/07 01:59:51;;;;;;;2.47;1.20;;;;;;;16.18;83.08;98089.50;5136500;27;20379;-69
2022/06/07 02:02:18;;;;;;;1.23;1.17;;;;;;;16.19;83.81;98093.00;5136064;27;20289;-69
2022/06/07 02:04:45;;;;;;;2.63;1.20;;;;;;;16.16;84.30;98088.13;5136275;27;20313;-69
2022/06/07 02:07:13;;;;;;;2.37;1.10;;;;;;;16.17;85.44;98087.06;5136281;27;20207;-69
2022/06/07 02:09:40;;;;;;;2.60;0.97;;;;;;;16.14;84.41;98080.31;5136172;27;20314;-69
2022/06/07 02:12:07;;;;;;;1.33;0.93;;;;;;;16.13;82.19;98088.63;5135933;27;20293;-69
2022/06/07 02:14:34;;;;;;;1.47;1.13;;;;;;;16.05;85.87;98079.16;5136135;27;20199;-69
2022/06/07 02:17:00;;;;;;;1.23;1.13;;;;;;;16.18;84.56;98078.75;5135802;27;20692;-69
2022/06/07 02:19:26;;;;;;;1.60;1.17;;;;;;;16.08;84.52;98078.66;5135906;27;20783;-69
2022/06/07 02:21:53;;;;;;;2.07;1.07;;;;;;;15.91;88.43;98079.81;5136028;27;20199;-69
2022/06/07 02:24:19;;;;;;;2.23;1.17;;;;;;;15.83;86.48;98070.34;5135848;27;20202;-69
2022/06/07 02:26:51;;;;;;;2.77;1.13;;;;;;;15.88;83.05;98067.72;5135577;27;20657;-69
2022/06/07 02:29:25;;;;;;;1.50;0.97;;;;;;;15.85;86.65;98070.91;5136506;27;20237;-69
2022/06/07 02:32:01;;;;;;;1.77;1.13;;;;;;;15.91;84.72;98056.50;5135863;27;20195;-69
2022/06/07 02:34:28;;;;;;;2.70;1.10;;;;;;;15.88;83.67;98067.72;5135425;27;20201;-69
2022/06/07 02:36:59;;;;;;;1.93;1.03;;;;;;;15.87;82.53;98065.31;5135708;27;20290;-70
2022/06/07 02:39:26;;;;;;;0.93;0.80;;;;;;;15.87;82.89;98051.91;5135614;27;20229;-69
2022/06/07 02:41:54;;;;;;;1.30;1.10;;;;;;;15.81;85.02;98061.75;5136123;27;20285;-69
2022/06/07 02:44:20;;;;;;;1.50;1.00;;;;;;;15.76;85.30;98059.03;5135735;27;20206;-69
2022/06/07 02:46:47;;;;;;;3.17;1.20;;;;;;;15.70;86.51;98051.97;5135101;27;20772;-69
2022/06/07 02:49:13;;;;;;;1.37;1.03;;;;;;;15.70;89.07;98043.13;5135207;27;20227;-69
2022/06/07 02:51:39;;;;;;;4.07;0.93;;;;;;;15.74;85.68;98045.03;5135352;27;20203;-69
2022/06/07 02:54:06;;;;;;;2.03;1.00;;;;;;;15.60;86.83;98037.66;5135237;27;20637;-69
2022/06/07 02:56:33;;;;;;;2.40;1.10;;;;;;;15.63;84.37;98035.28;5135277;27;20194;-69
2022/06/07 02:58:59;;;;;;;1.20;1.07;;;;;;;15.62;86.94;98031.00;5135051;27;20305;-69
2022/06/07 03:01:26;;;;;;;1.57;0.90;;;;;;;15.64;84.47;98033.41;5134766;27;20669;-69
2022/06/07 03:03:52;;;;;;;2.33;1.00;;;;;;;15.70;85.75;98027.84;5134715;27;20238;-69
2022/06/07 03:06:18;;;;;;;1.30;1.07;;;;;;;15.73;84.54;98031.88;5134751;27;20811;-69
2022/06/07 03:08:45;;;;;;;2.30;1.00;;;;;;;15.72;85.31;98027.59;5134696;27;20227;-69
2022/06/07 03:11:11;;;;;;;1.60;0.93;;;;;;;15.77;82.78;98033.00;5134673;27;20293;-69
2022/06/07 03:13:38;;;;;;;1.20;0.80;;;;;;;15.81;82.26;98036.81;5134807;27;20293;-69
2022/06/07 03:16:04;;;;;;;2.30;1.00;;;;;;;15.75;87.57;98049.34;5134711;27;20199;-69
2022/06/07 03:18:30;;;;;;;1.13;0.90;;;;;;;15.74;81.37;98049.63;5134159;27;20613;-69
2022/06/07 03:20:57;;;;;;;1.60;0.93;;;;;;;15.77;80.60;98044.56;5134557;27;20297;-69
2022/06/07 03:23:23;;;;;;;0.87;0.83;;;;;;;15.79;81.23;98049.66;5134867;27;20290;-69
2022/06/07 03:25:50;;;;;;;0.93;0.90;;;;;;;15.80;85.56;98045.91;5134652;27;20225;-69
2022/06/07 03:28:16;;;;;;;1.77;0.83;;;;;;;15.78;85.89;98043.47;5134664;27;20226;-69
2022/06/07 03:30:43;;;;;;;1.40;0.80;;;;;;;15.76;84.19;98044.81;5135099;27;20285;-69
2022/06/07 03:33:11;;;;;;;1.60;0.80;;;;;;;15.80;83.15;98040.56;5134298;27;20767;-69
2022/06/07 03:35:39;;;;;;;1.27;1.10;;;;;;;15.78;83.10;98048.06;5134469;27;20198;-69
2022/06/07 03:38:05;;;;;;;1.57;0.83;;;;;;;15.78;84.34;98040.81;5135079;27;20232;-69
2022/06/07 03:40:44;;;;;;;0.80;0.80;;;;;;;15.77;83.13;98027.66;5134374;27;20289;-69
2022/06/07 03:43:12;;;;;;;1.30;0.73;;;;;;;15.76;83.74;98037.59;5133907;27;20601;-69
2022/06/07 03:45:39;;;;;;;1.53;0.90;;;;;;;15.76;86.20;98026.03;5134106;27;20222;-69
2022/06/07 03:48:06;;;;;;;1.63;0.90;;;;;;;15.82;83.49;98028.53;5134594;27;20321;-69
2022/06/07 03:50:32;;;;;;;2.83;0.83;;;;;;;15.81;80.39;98034.94;5134036;28;20665;-69
2022/06/07 03:53:00;;;;;;;1.87;0.90;;;;;;;15.79;81.45;98029.00;5134195;28;20617;-69
2022/06/07 03:55:27;;;;;;;2.00;1.00;;;;;;;15.86;80.84;98035.00;5134455;28;20191;-69
2022/06/07 03:57:53;;;;;;;1.17;0.90;;;;;;;15.82;80.72;98036.56;5134349;28;20226;-69
2022/06/07 04:00:20;;;;;;;0.90;0.80;;;;;;;15.87;81.46;98041.97;5134313;28;20737;-69
2022/06/07 04:02:46;;;;;;;1.23;0.90;;;;;;;15.86;80.38;98037.69;5133966;28;20290;-69
2022/06/07 04:05:13;;;;;;;1.83;1.03;;;;;;;15.90;83.65;98037.97;5133496;28;20668;-69
2022/06/07 04:10:23;;;;;;;2.17;0.90;;;;;;;15.97;77.09;98039.38;5134513;28;20224;-69
2022/06/07 04:12:49;;;;;;;0.70;0.70;;;;;;;15.98;78.55;98043.72;5134138;28;20202;-69
2022/06/07 04:15:16;;;;;;;1.30;0.83;;;;;;;15.98;80.40;98045.56;5133887;28;20251;-69
2022/06/07 04:17:42;;;;;;;1.43;0.90;;;;;;;15.97;78.34;98044.75;5133772;28;20228;-69
2022/06/07 04:20:10;;;;;;;1.47;0.90;;;;;;;16.01;78.71;98045.88;5134072;28;20300;-69
2022/06/07 04:22:36;;;;;;;0.80;0.80;;;;;;;15.97;79.13;98050.13;5133884;28;20202;-68
2022/06/07 04:25:03;;;;;;;1.30;1.20;;;;;;;16.02;79.86;98039.44;5133312;28;20198;-69
2022/06/07 04:27:30;;;;;;;3.47;1.10;;;;;;;16.03;78.25;98048.31;5133442;28;20641;-69
2022/06/07 04:29:56;;;;;;;0.83;0.80;;;;;;;15.99;80.81;98049.88;5134023;28;20293;-68
2022/06/07 04:32:23;;;;;;;2.17;0.97;;;;;;;16.01;83.77;98051.22;5133670;28;20680;-69
2022/06/07 04:34:49;;;;;;;1.13;1.03;;;;;;;16.03;80.57;98050.97;5133962;28;20209;-69
2022/06/07 04:37:17;;;;;;;1.30;0.90;;;;;;;16.01;80.25;98053.13;5133551;28;20771;-69
2022/06/07 04:39:43;;;;;;;1.27;1.00;;;;;;;16.03;80.97;98054.47;5133654;28;20233;-68
2022/06/07 04:42:10;;;;;;;2.70;1.10;;;;;;;16.05;80.32;98057.72;5133301;28;20661;-68
2022/06/07 04:44:36;;;;;;;2.23;1.00;;;;;;;16.16;78.77;98061.31;5133241;28;20207;-68
2022/06/07 04:47:03;;;;;;;1.40;1.00;;;;;;;16.06;79.88;98064.69;5132859;28;20230;-69
2022/06/07 04:49:29;;;;;;;1.00;0.90;;;;;;;16.08;79.40;98056.38;5133179;28;20219;-68
2022/06/07 04:51:56;;;;;;;1.83;1.07;;;;;;;16.09;79.82;98058.00;5133476;28;20304;-68
2022/06/07 04:54:22;;;;;;;1.80;0.90;;;;;;;16.07;79.87;98058.28;5133163;28;20217;-69
2022/06/07 04:56:48;;;;;;;1.83;0.93;;;;;;;16.06;76.38;98062.00;5135898;27;20206;-68
2022/06/07 04:59:15;;;;;;;0.77;0.77;;;;;;;16.07;77.15;98060.13;5137262;27;20309;-68
2022/06/07 05:01:44;;;;;;;2.97;0.90;;;;;;;16.10;78.06;98057.75;5136865;27;20247;-69
2022/06/07 05:04:12;;;;;;;0.87;0.87;;;;;;;16.13;77.84;98067.16;5136671;27;20294;-68
2022/06/07 05:06:41;;;;;;;1.80;0.90;;;;;;;16.12;75.04;98068.22;5136364;27;20309;-69
2022/06/07 05:09:17;;;;;;;1.93;0.80;;;;;;;16.18;74.61;98072.56;5136168;27;20226;-68
2022/06/07 05:11:47;;;;;;;1.27;0.87;;;;;;;16.18;74.31;98081.44;5136830;27;20190;-68
2022/06/07 05:14:14;;;;;;;1.00;1.00;;;;;;;16.21;76.19;98074.75;5136664;27;20308;-68
2022/06/07 05:16:42;;;;;;;1.17;0.70;;;;;;;16.19;75.09;98088.41;5136189;27;20198;-69
2022/06/07 05:19:10;;;;;;;1.53;1.07;;;;;;;16.21;75.53;98085.50;5136404;27;20245;-69
2022/06/07 05:21:37;;;;;;;3.07;0.97;;;;;;;16.16;76.05;98085.44;5118396;27;20206;-68
2022/06/07 05:24:05;;;;;;;2.47;0.90;;;;;;;16.06;76.71;98096.06;5136032;27;20234;-69
2022/06/07 05:26:37;;;;;;;2.33;1.10;;;;;;;16.07;77.60;98095.81;5136094;27;20753;-69
2022/06/07 05:29:05;;;;;;;2.20;0.87;;;;;;;16.13;76.79;98086.75;5136199;27;20222;-68
2022/06/07 05:31:32;;;;;;;6.10;1.03;;;;;;;16.16;76.95;98091.63;5136818;27;20535;-68
2022/06/07 05:33:59;;;;;;;1.07;1.00;;;;;;;16.23;75.84;98099.44;5136043;27;20293;-69
2022/06/07 05:36:25;;;;;;;1.27;0.90;;;;;;;16.26;77.56;98094.41;5136211;27;20281;-68
2022/06/07 05:38:52;;;;;;;1.77;1.03;;;;;;;16.35;74.44;98100.94;5135168;27;20232;-68
2022/06/07 05:41:21;;;;;;;1.53;0.90;;;;;;;16.37;75.18;98096.09;5135981;27;20701;-68
2022/06/07 05:43:48;;;;;;;2.87;0.90;;;;;;;16.40;74.20;98098.31;5136250;27;20198;-68
2022/06/07 05:46:15;;;;;;;1.53;1.10;;;;;;;16.42;77.69;98090.81;5136239;27;20222;-68
2022/06/07 05:48:41;;;;;;;2.57;0.93;;;;;;;16.57;75.12;98096.34;5135697;27;20318;-69
2022/06/07 05:51:08;;;;;;;1.10;0.80;;;;;;;16.67;73.95;98098.28;5135752;27;20206;-69
2022/06/07 05:53:34;;;;;;;1.70;1.00;;;;;;;16.92;75.13;98101.16;5135294;27;20755;-69
2022/06/07 05:56:08;;;;;;;1.30;0.90;;;;;;;16.98;74.29;98108.19;5135457;27;20291;-69
2022/06/07 05:58:35;;;;;;;1.83;1.00;;;;;;;17.04;72.93;98105.28;5135616;27;20225;-68
2022/06/07 06:01:02;;;;;;;1.23;0.93;;;;;;;17.12;74.42;98104.78;5135604;27;20206;-68
2022/06/07 06:03:28;;;;;;;1.23;0.97;;;;;;;17.18;74.33;98109.13;5135181;27;20199;-68
2022/06/07 06:05:55;;;;;;;2.67;1.10;;;;;;;17.25;73.83;98103.53;5135188;27;20688;-69
2022/06/07 06:11:08;;;;;;;1.70;0.97;;;;;;;17.38;73.47;98103.06;5135768;27;20174;-69
2022/06/07 06:13:36;;;;;;;4.03;1.03;;;;;;;17.32;71.95;98107.59;5134646;27;20740;-69
2022/06/07 06:16:08;;;;;;;1.10;1.00;;;;;;;17.32;71.32;98110.28;5135179;27;20198;-69
2022/06/07 06:18:34;;;;;;;2.10;0.90;;;;;;;17.44;72.42;98113.63;5135300;27;20226;-69
2022/06/07 06:21:01;;;;;;;1.57;1.00;;;;;;;17.49;72.30;98113.63;5134926;27;20203;-70
2022/06/07 06:23:28;;;;;;;1.53;0.93;;;;;;;17.57;71.81;98112.31;5134184;27;20210;-70
2022/06/07 06:25:55;;;;;;;1.37;0.80;;;;;;;17.57;70.61;98097.00;5133486;27;20215;-70
2022/06/07 06:28:22;;;;;;;1.10;1.00;;;;;;;17.64;72.16;98092.19;5134561;27;20226;-68
2022/06/07 06:30:49;;;;;;;0.90;0.90;;;;;;;17.64;70.20;98094.88;5134226;27;20565;-71
2022/06/07 06:33:17;;;;;;;1.23;0.90;;;;;;;17.75;71.01;98104.63;5134445;27;20209;-71
2022/06/07 06:35:48;;;;;;;1.33;0.80;;;;;;;17.82;70.53;98097.09;5134548;27;20198;-70
2022/06/07 06:38:16;;;;;;;2.17;0.87;;;;;;;17.77;68.89;98093.56;5135145;27;20230;-70
2022/06/07 06:40:43;;;;;;;2.30;1.03;;;;;;;17.98;69.63;98093.41;5135149;27;20235;-69
2022/06/07 06:43:10;;;;;;;2.97;1.00;;;;;;;17.95;67.27;98099.28;5134664;27;20207;-70
2022/06/07 06:45:37;;;;;;;2.20;0.80;;;;;;;17.90;66.87;98104.66;5134679;27;20370;-70
2022/06/07 06:48:03;;;;;;;2.03;0.93;;;;;;;18.14;67.69;98100.41;5134369;27;20736;-69
2022/06/07 06:50:30;;;;;;;1.77;0.87;;;;;;;17.96;65.33;98108.19;5135323;27;20293;-69
2022/06/07 06:52:57;;;;;;;1.70;1.40;;;;;;;18.15;65.52;98104.72;5134690;27;20260;-70
2022/06/07 06:55:23;;;;;;;4.00;1.10;;;;;;;18.28;67.46;98112.28;5134505;27;20191;-69
2022/06/07 06:57:49;;;;;;;2.67;1.00;;;;;;;18.19;64.45;98111.19;5134303;27;20571;-70
2022/06/07 07:00:17;;;;;;;1.07;0.90;;;;;;;18.30;66.35;98110.16;5134604;27;20202;-70
2022/06/07 07:02:47;;;;;;;2.50;1.27;;;;;;;18.40;65.59;98104.00;5134427;27;20289;-70
2022/06/07 07:05:15;;;;;;;1.07;0.90;;;;;;;18.61;65.83;98109.16;5134273;27;20213;-70
2022/06/07 07:07:42;;;;;;;2.23;1.10;;;;;;;18.43;62.51;98109.66;5134124;27;20234;-70
2022/06/07 07:10:10;;;;;;;2.07;0.90;;;;;;;18.91;66.43;98106.44;5134290;27;20260;-70
2022/06/07 07:12:38;;;;;;;2.80;0.90;;;;;;;18.94;64.06;98105.91;5134426;27;20202;-70
2022/06/07 07:15:07;;;;;;;1.10;0.97;;;;;;;18.78;63.29;98112.34;5134134;27;20210;-70
2022/06/07 07:17:33;;;;;;;2.47;0.80;;;;;;;18.85;62.53;98112.91;5134282;27;20616;-71
2022/06/07 07:20:00;;;;;;;5.73;1.13;;;;;;;18.64;62.16;98099.72;5134733;27;20198;-70
2022/06/07 07:22:27;;;;;;;3.57;1.40;;;;;;;18.45;63.96;98101.28;5134179;27;20198;-69
2022/06/07 07:24:54;;;;;;;1.83;1.00;;;;;;;18.59;64.24;98103.19;5133969;27;20541;-69
2022/06/07 07:27:20;;;;;;;1.43;1.00;;;;;;;18.80;61.87;98110.22;5133785;27;20313;-69
2022/06/07 07:29:47;;;;;;;1.67;0.90;;;;;;;18.45;61.64;98104.00;5134273;27;20213;-69
2022/06/07 07:32:13;;;;;;;2.83;1.10;;;;;;;18.37;61.71;98093.78;5134005;27;20198;-70
2022/06/07 07:34:40;;;;;;;1.43;1.00;;;;;;;18.51;61.67;98095.66;5134041;27;20203;-69
2022/06/07 07:37:06;;;;;;;1.90;0.90;;;;;;;18.82;62.22;98096.50;5133920;27;20208;-69
2022/06/07 07:39:32;;;;;;;1.23;0.80;;;;;;;18.85;63.09;98090.53;5133627;27;20677;-69
2022/06/07 07:41:59;;;;;;;3.50;1.20;;;;;;;18.90;61.85;98087.84;5133603;27;20312;-70
2022/06/07 07:44:27;;;;;;;1.87;1.07;;;;;;;19.09;61.50;98097.00;5134216;27;20230;-71
2022/06/07 07:46:55;;;;;;;2.00;1.00;;;;;;;19.22;60.20;98102.66;5133865;27;20241;-70
2022/06/07 07:49:23;;;;;;;2.23;0.90;;;;;;;19.15;59.01;98090.50;5133990;27;20222;-69
2022/06/07 07:51:51;;;;;;;1.00;0.90;;;;;;;19.58;61.61;98089.88;5133866;27;20633;-69
2022/06/07 07:54:20;;;;;;;1.83;1.43;;;;;;;19.58;59.22;98089.88;5133697;28;20215;-69
2022/06/07 07:56:47;;;;;;;1.37;0.80;;;;;;;19.43;59.14;98088.06;5133820;28;20294;-70
2022/06/07 07:59:16;;;;;;;1.00;0.80;;;;;;;19.75;58.65;98087.66;5133732;28;20254;-70
2022/06/07 08:01:43;;;;;;;2.37;0.90;;;;;;;19.16;58.30;98092.94;5133880;28;20309;-70
2022/06/07 08:04:10;;;;;;;1.53;0.70;;;;;;;19.22;58.52;98088.31;5133658;28;20289;-70
2022/06/07 08:06:37;;;;;;;2.30;0.80;;;;;;;19.54;60.86;98083.44;5133514;28;20229;-70
2022/06/07 08:09:06;;;;;;;5.43;1.00;;;;;;;19.80;57.30;98078.75;5133368;28;20634;-69
2022/06/07 08:11:35;;;;;;;2.40;1.00;;;;;;;19.59;55.00;98086.13;5133727;28;20210;-69
2022/06/07 08:14:05;;;;;;;2.50;0.90;;;;;;;19.51;56.17;98090.16;5133815;28;20199;-70
2022/06/07 08:16:32;;;;;;;1.87;0.97;;;;;;;19.56;55.05;98086.66;5133938;28;20249;-70
2022/06/07 08:18:59;;;;;;;1.20;0.90;;;;;;;19.55;55.32;98085.84;5133828;28;20231;-69
2022/06/07 08:21:27;;;;;;;2.03;0.90;;;;;;;19.84;55.06;98088.69;5133843;28;20202;-70
2022/06/07 08:23:56;;;;;;;1.17;0.80;;;;;;;20.03;56.73;98081.56;5133659;28;20581;-70
2022/06/07 08:26:24;;;;;;;1.67;0.90;;;;;;;19.94;55.52;98080.53;5133253;28;20740;-70
2022/06/07 08:28:50;;;;;;;1.03;0.90;;;;;;;20.39;55.88;98071.41;5133263;28;20701;-71
2022/06/07 08:31:26;;;;;;;1.60;0.83;;;;;;;20.51;54.99;98080.75;5134444;27;20744;-71
2022/06/07 08:39:23;;;;;;;0.97;0.80;;;;;;;19.62;55.08;98090.16;5137678;27;20209;-70
2022/06/07 08:42:13;;;;;;;1.87;0.70;;;;;;;19.73;55.94;98082.53;5137403;27;20254;-71
2022/06/07 08:44:43;;;;;;;2.23;0.80;;;;;;;20.29;55.16;98071.44;5137590;27;20191;-70
2022/06/07 08:47:23;;;;;;;2.60;0.90;;;;;;;20.51;55.33;98064.53;5137687;27;20553;-71
2022/06/07 08:49:51;;;;;;;1.67;1.10;;;;;;;20.56;51.00;98071.78;5137670;27;20222;-71
2022/06/07 08:52:25;;;;;;;0.83;0.67;;;;;;;20.15;51.04;98083.97;5137455;27;20199;-71
2022/06/07 08:54:52;;;;;;;3.20;0.80;;;;;;;19.88;52.91;98073.56;5137386;27;20214;-70
2022/06/07 08:57:23;;;;;;;4.83;1.10;;;;;;;19.57;54.16;98074.00;5137120;27;20253;-71
2022/06/07 08:59:55;;;;;;;2.17;0.90;;;;;;;19.57;54.58;98080.16;5136908;27;20629;-70
2022/06/07 09:02:34;;;;;;;1.27;0.77;;;;;;;19.83;53.78;98060.09;5136960;27;20522;-71
2022/06/07 09:05:00;;;;;;;2.20;0.83;;;;;;;19.85;56.21;98060.63;5136808;27;20653;-71
2022/06/07 09:07:27;;;;;;;4.30;1.00;;;;;;;20.32;56.46;98057.41;5136798;27;20317;-71
2022/06/07 09:12:56;;;;;;;1.80;0.90;;;;;;;20.61;52.84;98050.16;5137317;27;20247;-70
2022/06/07 09:15:28;;;;;;;0.80;0.80;;;;;;;20.21;52.00;98047.78;5137200;27;20191;-71
2022/06/07 09:17:58;;;;;;;1.67;0.90;;;;;;;20.11;53.25;98058.63;5136898;27;20260;-71
2022/06/07 09:20:49;;;;;;;3.17;0.80;;;;;;;19.79;54.66;98048.25;5136582;27;20203;-71
2022/06/07 09:23:27;;;;;;;1.33;0.90;;;;;;;20.12;53.42;98046.75;5136401;27;20187;-70
2022/06/07 09:25:58;;;;;;;1.43;0.90;;;;;;;20.76;52.95;98042.72;5136471;27;20629;-71
2022/06/07 09:28:28;;;;;;;0.80;0.80;;;;;;;21.42;52.74;98034.75;5136350;27;20313;-71
2022/06/07 09:31:05;;;;;;;1.30;0.80;;;;;;;20.90;51.84;98035.59;5136100;27;20191;-71
2022/06/07 09:33:34;;;;;;;1.03;0.93;;;;;;;20.51;52.00;98039.44;5136309;27;20204;-71
2022/06/07 09:36:20;;;;;;;0.90;0.80;;;;;;;20.11;52.70;98034.34;5136156;27;20293;-71
2022/06/07 09:38:55;;;;;;;0.70;0.70;;;;;;;20.16;51.63;98032.41;5136148;27;20295;-70
2022/06/07 09:41:54;;;;;;;1.43;0.73;;;;;;;20.59;49.20;98026.13;5135944;27;20193;-70
2022/06/07 09:44:25;;;;;;;2.13;0.93;;;;;;;21.31;50.93;98027.88;5136294;27;20558;-70
2022/06/07 09:46:58;;;;;;;1.13;0.63;;;;;;;21.74;49.36;98022.22;5136098;27;20222;-71
2022/06/07 09:49:46;;;;;;;1.27;0.80;;;;;;;21.46;49.93;98022.25;5136250;27;20230;-70
2022/06/07 09:52:41;;;;;;;2.37;0.70;;;;;;;21.43;46.90;98025.56;5135856;27;20273;-70
2022/06/07 09:55:22;;;;;;;1.27;0.80;;;;;;;21.20;49.76;98026.38;5132306;27;20269;-71
2022/06/07 09:58:30;;;;;;;0.83;0.70;;;;;;;20.80;48.50;98013.25;5136199;27;20224;-71
2022/06/07 10:01:05;;;;;;;0.83;0.80;;;;;;;20.66;49.79;98021.19;5135857;27;20182;-69
2022/06/07 10:03:41;;;;;;;1.40;0.70;;;;;;;20.50;47.87;98017.03;5136204;27;20277;-69
2022/06/07 10:06:17;;;;;;;0.60;0.60;;;;;;;20.37;49.43;98016.84;5136162;27;20278;-69
2022/06/07 10:09:02;;;;;;;2.00;0.83;;;;;;;20.16;48.60;98008.09;5118179;27;20229;-69
2022/06/07 10:11:45;;;;;;;3.30;2.87;;;;;;;20.27;49.09;98014.25;5135823;27;20193;-69
2022/06/07 10:14:38;;;;;;;2.13;1.70;;;;;;;20.63;48.99;98007.47;5135717;27;20277;-69
2022/06/07 10:17:23;;;;;;;1.20;0.80;;;;;;;21.14;49.00;98004.00;5096885;27;20542;-69
2022/06/07 10:20:10;;;;;;;1.63;0.80;;;;;;;20.90;47.49;98002.34;5135114;27;20277;-68
2022/06/07 10:23:24;;;;;;;2.17;0.80;;;;;;;21.48;46.54;98007.34;5135498;27;20187;-69
2022/06/07 10:26:01;;;;;;;0.90;0.70;;;;;;;21.25;48.59;98007.38;5051685;28;20205;-69
2022/06/07 10:29:08;;;;;;;1.03;0.83;;;;;;;21.16;48.55;98006.41;5123918;27;20257;-69
2022/06/07 10:32:03;;;;;;;0.80;0.80;;;;;;;20.54;48.31;98006.47;5062322;27;20702;-69
2022/06/07 10:34:42;;;;;;;2.27;0.90;;;;;;;20.73;50.09;98002.78;5135690;27;20202;-69
2022/06/07 10:37:33;;;;;;;0.90;0.90;;;;;;;20.77;50.15;98000.28;5135686;27;20187;-68
2022/06/07 10:40:30;;;;;;;1.57;1.40;;;;;;;20.63;48.94;97993.94;5116674;27;20190;-69
2022/06/07 10:43:24;;;;;;;0.70;0.70;;;;;;;20.68;49.09;97992.00;5116911;27;20202;-69
2022/06/07 10:45:57;;;;;;;5.73;5.20;;;;;;;20.80;51.10;97989.72;5131144;27;20206;-69
2022/06/07 10:48:46;;;;;;;2.67;2.30;;;;;;;20.81;50.49;97999.47;5134568;27;20283;-69
2022/06/07 10:54:05;;;;;;;4.87;0.93;;;;;;;21.60;51.21;97999.63;5133646;27;20247;-69
2022/06/07 10:56:41;;;;;;;2.00;0.80;;;;;;;21.94;49.02;97991.34;5135047;27;20289;-69
2022/06/07 10:59:23;;;;;;;8.83;7.67;;;;;;;21.73;51.32;97982.72;5116517;27;20304;-69
2022/06/07 11:02:09;;;;;;;2.53;0.80;;;;;;;21.49;49.46;97983.81;5134815;27;20289;-69
2022/06/07 11:10:26;;;;;;;0.53;0.53;;;;;;;20.41;48.52;97985.50;5134655;27;20259;-69
2022/06/07 11:13:19;;;;;;;1.67;1.00;;;;;;;20.38;49.02;97980.66;5133708;27;20195;-69
2022/06/07 11:15:55;;;;;;;1.30;1.10;;;;;;;20.58;50.60;97985.91;5116125;27;20623;-69
2022/06/07 11:18:24;;;;;;;1.17;0.70;;;;;;;20.67;49.50;97982.28;5134423;27;20312;-69
2022/06/07 11:21:03;;;;;;;0.80;0.80;;;;;;;20.68;51.47;97978.50;5134019;27;20680;-69
2022/06/07 11:23:33;;;;;;;0.73;0.73;;;;;;;20.71;49.74;97977.91;5134274;27;20208;-69
2022/06/07 11:26:04;;;;;;;0.80;0.80;;;;;;;20.63;50.53;97969.63;5134435;27;20273;-68
2022/06/07 11:28:39;;;;;;;1.77;0.90;;;;;;;20.57;50.23;97963.47;5133822;27;20708;-69
2022/06/07 11:31:24;;;;;;;1.20;1.10;;;;;;;20.49;50.70;97972.22;5134021;27;20294;-68
2022/06/07 11:33:53;;;;;;;3.33;1.00;;;;;;;20.56;51.51;97966.44;5135082;27;20297;-68
2022/06/07 11:36:23;;;;;;;2.13;1.20;;;;;;;20.69;52.58;97971.19;5134649;27;20300;-69
2022/06/07 11:38:56;;;;;;;1.80;0.90;;;;;;;20.73;51.17;97964.94;5134039;27;20218;-68
2022/06/07 11:41:37;;;;;;;2.27;1.20;;;;;;;20.96;49.02;97966.06;5134312;27;20206;-68
2022/06/07 11:44:10;;;;;;;0.70;0.70;;;;;;;20.91;48.41;97960.72;5134200;27;20214;-69
2022/06/07 11:46:36;;;;;;;1.80;0.70;;;;;;;20.75;49.30;97964.66;5133866;27;20241;-68
2022/06/07 11:49:21;;;;;;;7.70;6.73;;;;;;;21.07;49.41;97960.25;5133918;27;20311;-69
2022/06/07 11:52:14;;;;;;;18.47;16.60;;;;;;;21.48;50.00;97955.16;5134631;27;20267;-68
2022/06/07 11:54:53;;;;;;;1.37;0.90;;;;;;;21.43;48.34;97953.31;5088878;28;20576;-70
2022/06/07 11:57:57;;;;;;;1.93;1.20;;;;;;;21.77;50.49;97948.56;5134794;28;20252;-70
2022/06/07 12:00:23;;;;;;;2.10;1.10;;;;;;;21.50;49.36;97939.44;5134904;28;20186;-70
2022/06/07 12:03:00;;;;;;;3.53;0.90;;;;;;;21.12;51.40;97954.00;5134175;28;20247;-70
2022/06/07 12:05:32;;;;;;;4.47;1.13;;;;;;;20.98;50.05;97950.38;5134044;27;20202;-70
2022/06/07 12:08:13;;;;;;;1.73;0.93;;;;;;;20.91;52.67;97939.91;5137950;27;20230;-70
2022/06/07 12:10:55;;;;;;;2.30;1.10;;;;;;;20.81;52.73;97942.72;5138185;27;20186;-70
2022/06/07 12:16:22;;;;;;;0.97;0.87;;;;;;;20.53;51.12;97940.03;5136594;27;20293;-70
2022/06/07 12:18:53;;;;;;;2.33;1.00;;;;;;;20.69;53.32;97941.47;5119947;27;20259;-70
2022/06/07 12:21:21;;;;;;;3.00;0.97;;;;;;;20.74;53.30;97942.22;5137573;27;20652;-70
2022/06/07 12:23:50;;;;;;;1.77;1.17;;;;;;;20.65;51.35;97932.31;5137787;27;20203;-69